createdAt,value
2023-01-08T00:01:20.921Z,78.92
2023-01-08T00:03:48.351Z,79.30
2023-01-08T00:06:18.584Z,79.18
2023-01-08T00:08:46.251Z,86.15
2023-01-08T00:11:13.917Z,81.89
2023-01-08T00:13:41.652Z,80.75
2023-01-08T00:16:15.035Z,79.88
2023-01-08T00:18:43.017Z,79.40
2023-01-08T00:21:10.420Z,78.54
2023-01-08T00:23:38.363Z,77.39
2023-01-08T00:26:09.392Z,75.98
2023-01-08T00:28:37.741Z,76.05
2023-01-08T00:31:06.568Z,75.19
2023-01-08T00:33:34.979Z,76.12
2023-01-08T00:36:08.177Z,75.21
2023-01-08T00:38:35.688Z,76.71
2023-01-08T00:41:03.108Z,76.57
2023-01-08T00:43:30.906Z,73.97
2023-01-08T00:45:58.314Z,73.33
2023-01-08T00:48:25.874Z,71.18
2023-01-08T00:50:54.846Z,74.95
2023-01-08T00:53:22.488Z,75.29
2023-01-08T00:55:50.165Z,72.68
2023-01-08T00:58:17.768Z,72.00
2023-01-08T01:00:44.995Z,72.43
2023-01-08T01:03:12.380Z,77.26
2023-01-08T01:05:39.760Z,79.05
2023-01-08T19:30:10.916Z,74.99
2023-01-08T19:37:43.571Z,75.43
2023-01-08T19:45:16.123Z,72.32
2023-01-08T19:52:48.665Z,71.23
2023-01-08T20:00:22.710Z,71.63
2023-01-08T20:07:55.081Z,71.40
2023-01-08T20:15:29.224Z,71.81
2023-01-08T20:23:01.587Z,72.52
2023-01-08T20:30:34.054Z,73.81
2023-01-08T20:38:06.473Z,73.77
2023-01-08T20:45:41.995Z,72.63
2023-01-08T20:53:14.900Z,72.47
2023-01-08T21:00:47.583Z,69.62
2023-01-08T21:08:20.088Z,69.28
2023-01-08T21:15:31.161Z,71.31
2023-01-08T21:19:43.602Z,70.16
2023-01-08T21:23:57.741Z,68.47
2023-01-08T21:28:10.168Z,68.23
2023-01-08T21:32:22.700Z,66.91
2023-01-08T21:36:35.219Z,66.50
2023-01-08T21:40:47.865Z,67.15
2023-01-08T21:45:18.631Z,67.38
2023-01-08T21:49:32.175Z,68.16
2023-01-08T21:53:44.541Z,69.30
2023-01-08T21:57:56.977Z,68.61
2023-01-08T22:02:15.750Z,69.31
2023-01-08T22:06:28.479Z,69.85
2023-01-08T22:10:41.303Z,70.41
2023-01-08T22:14:54.951Z,70.42
2023-01-08T22:19:07.368Z,69.74
2023-01-08T22:23:19.738Z,68.65
2023-01-08T22:27:32.171Z,67.43
2023-01-08T22:31:44.672Z,67.40
2023-01-08T22:35:57.309Z,66.69
2023-01-08T22:40:10.613Z,66.15
2023-01-08T22:44:23.129Z,66.25
2023-01-08T22:48:35.963Z,65.86
2023-01-08T22:52:48.357Z,65.36
2023-01-08T22:57:00.756Z,65.99
2023-01-08T23:01:16.423Z,64.81
2023-01-08T23:05:30.043Z,64.91
2023-01-08T23:09:42.587Z,64.76
2023-01-08T23:13:55.376Z,64.38
2023-01-08T23:18:07.704Z,64.30
2023-01-08T23:22:20.058Z,63.49
2023-01-08T23:26:32.541Z,63.46
2023-01-08T23:30:44.943Z,64.19
2023-01-08T23:34:57.378Z,64.53
2023-01-08T23:39:10.880Z,64.24
2023-01-08T23:43:23.353Z,64.39
2023-01-08T23:47:35.889Z,64.38
2023-01-08T23:51:48.411Z,63.65
2023-01-08T23:56:02.847Z,63.84
